Time;durP1;ratioP1;P1;durP2;ratioP2;P2;SDS_P1;SDS_P2;PMS_P1;PMS_P2;Temp;Humidity;BMP_temperature;BMP_pressure;BME280_temperature;BME280_humidity;BME280_pressure;Samples;Min_cycle;Max_cycle;Signal;HPM_P1;HPM_P2
2021/07/10 00:02:10;;;;;;;3.67;3.20;;;21.00;99.90;;;;;;5092853;28;20186;-81
2021/07/10 00:04:35;;;;;;;4.40;3.43;;;21.00;99.90;;;;;;5092429;28;20242;-81
2021/07/10 00:07:04;;;;;;;4.10;3.70;;;20.90;99.90;;;;;;5092841;28;20670;-81
2021/07/10 00:09:30;;;;;;;4.53;4.13;;;20.90;99.90;;;;;;5074138;28;20167;-81
2021/07/10 00:11:56;;;;;;;5.03;3.80;;;20.90;99.90;;;;;;5092618;28;20558;-80
2021/07/10 00:14:22;;;;;;;7.93;4.53;;;20.80;99.90;;;;;;5091463;28;20957;-80
2021/07/10 00:16:48;;;;;;;3.53;3.23;;;20.80;99.90;;;;;;5092757;28;20172;-79
2021/07/10 00:19:13;;;;;;;4.80;4.03;;;20.70;99.90;;;;;;5077311;28;20168;-80
2021/07/10 00:21:39;;;;;;;3.87;3.47;;;20.70;99.90;;;;;;5081833;28;20187;-80
2021/07/10 00:24:05;;;;;;;3.67;3.37;;;20.60;99.90;;;;;;5079001;28;20689;-80
2021/07/10 00:26:32;;;;;;;4.37;3.97;;;20.60;99.90;;;;;;5095038;28;20661;-80
2021/07/10 00:28:58;;;;;;;3.90;3.50;;;20.50;99.90;;;;;;5074220;28;20160;-80
2021/07/10 00:31:24;;;;;;;4.93;4.53;;;20.50;99.90;;;;;;5092395;28;20970;-80
2021/07/10 00:33:50;;;;;;;3.80;3.47;;;20.40;99.90;;;;;;5092142;28;20700;-80
2021/07/10 00:36:16;;;;;;;4.10;3.80;;;20.30;99.90;;;;;;5092017;28;20250;-80
2021/07/10 00:38:42;;;;;;;4.43;4.03;;;20.30;99.90;;;;;;5092051;28;20289;-80
2021/07/10 00:41:07;;;;;;;4.47;4.07;;;20.20;99.90;;;;;;5092000;28;20718;-80
2021/07/10 00:43:33;;;;;;;5.80;4.27;;;20.10;99.90;;;;;;5091259;28;20215;-80
2021/07/10 00:45:59;;;;;;;5.20;4.57;;;20.10;99.90;;;;;;5073869;28;20537;-80
2021/07/10 00:48:24;;;;;;;5.13;4.73;;;20.00;99.90;;;;;;5057362;28;20309;-80
2021/07/10 00:50:50;;;;;;;4.50;4.10;;;20.00;99.90;;;;;;5091961;28;20299;-80
2021/07/10 00:53:16;;;;;;;4.43;4.00;;;19.90;99.90;;;;;;5073566;28;20266;-80
2021/07/10 00:55:42;;;;;;;4.40;4.00;;;19.80;99.90;;;;;;5091092;28;20266;-81
2021/07/10 00:58:10;;;;;;;4.80;3.97;;;19.80;99.90;;;;;;5074906;28;20584;-81
2021/07/10 01:00:36;;;;;;;4.83;4.43;;;19.80;99.90;;;;;;5092508;28;20585;-81
2021/07/10 01:03:02;;;;;;;4.00;3.70;;;19.70;99.90;;;;;;5090567;28;20586;-80
2021/07/10 01:05:31;;;;;;;6.27;4.30;;;19.60;99.90;;;;;;5073624;28;20574;-81
2021/07/10 01:07:57;;;;;;;4.40;4.00;;;19.60;99.90;;;;;;5091025;28;20589;-81
2021/07/10 01:10:24;;;;;;;4.73;4.33;;;19.60;99.90;;;;;;5090938;28;20642;-81
2021/07/10 01:12:52;;;;;;;4.90;4.53;;;19.60;99.90;;;;;;5091219;28;20578;-81
2021/07/10 01:15:22;;;;;;;4.00;3.60;;;19.50;99.90;;;;;;5091612;28;20597;-81
2021/07/10 01:17:48;;;;;;;4.10;3.70;;;19.50;99.90;;;;;;5073323;28;20585;-81
2021/07/10 01:20:14;;;;;;;5.67;5.20;;;19.50;99.90;;;;;;5091783;28;20727;-80
2021/07/10 01:22:41;;;;;;;8.03;4.30;;;19.50;99.90;;;;;;5073605;28;20562;-81
2021/07/10 01:25:10;;;;;;;4.23;3.93;;;19.40;99.90;;;;;;5057068;28;21160;-81
2021/07/10 01:27:37;;;;;;;5.00;4.50;;;19.40;99.90;;;;;;5073315;28;20570;-80
2021/07/10 01:30:09;;;;;;;4.60;4.20;;;19.40;99.90;;;;;;5091339;28;20627;-81
2021/07/10 01:32:36;;;;;;;5.10;4.60;;;19.40;99.90;;;;;;5091340;28;20964;-82
2021/07/10 01:35:02;;;;;;;4.77;4.20;;;19.40;99.90;;;;;;5093062;28;21180;-82
2021/07/10 01:37:27;;;;;;;4.43;4.13;;;19.40;99.90;;;;;;5091537;28;20550;-82
2021/07/10 01:39:53;;;;;;;5.70;4.80;;;19.40;99.90;;;;;;5091210;28;20575;-82
2021/07/10 01:42:19;;;;;;;5.70;4.80;;;19.40;99.90;;;;;;5073426;28;20195;-82
2021/07/10 01:44:46;;;;;;;7.37;4.50;;;19.30;99.90;;;;;;5091188;28;20193;-82
2021/07/10 01:47:11;;;;;;;5.50;4.77;;;19.30;99.90;;;;;;5091455;28;20168;-82
2021/07/10 01:49:37;;;;;;;5.03;4.63;;;19.30;99.90;;;;;;5091008;28;20614;-82
2021/07/10 01:52:03;;;;;;;8.93;5.30;;;19.30;99.90;;;;;;5091435;28;20918;-82
2021/07/10 01:54:29;;;;;;;6.30;5.70;;;19.20;99.90;;;;;;5091462;28;20191;-81
2021/07/10 01:56:55;;;;;;;7.17;4.90;;;19.30;99.90;;;;;;5095498;28;20565;-81
2021/07/10 01:59:21;;;;;;;5.27;4.80;;;19.20;99.90;;;;;;5076913;28;20895;-81
2021/07/10 02:01:47;;;;;;;5.63;5.13;;;19.20;99.90;;;;;;5095211;28;20214;-80
2021/07/10 02:04:18;;;;;;;6.67;6.07;;;19.10;99.90;;;;;;5076820;28;20625;-81
2021/07/10 02:06:45;;;;;;;6.40;5.80;;;19.10;99.90;;;;;;5095089;28;20562;-81
2021/07/10 02:09:11;;;;;;;5.77;5.17;;;19.10;99.90;;;;;;5094606;28;20576;-81
2021/07/10 02:11:38;;;;;;;6.20;5.60;;;19.00;99.90;;;;;;5096932;28;20606;-81
2021/07/10 02:14:04;;;;;;;6.07;5.53;;;19.10;99.90;;;;;;5076818;28;20605;-81
2021/07/10 02:16:30;;;;;;;5.43;4.83;;;19.00;99.90;;;;;;5094925;28;20562;-81
2021/07/10 02:18:58;;;;;;;6.30;5.80;;;19.00;99.90;;;;;;5094864;28;21005;-82
2021/07/10 02:21:23;;;;;;;7.13;6.53;;;18.90;99.90;;;;;;5094832;28;21119;-82
2021/07/10 02:23:51;;;;;;;5.90;5.30;;;18.90;99.90;;;;;;5076695;28;20601;-82
2021/07/10 02:26:18;;;;;;;6.23;5.77;;;18.90;99.90;;;;;;5094474;28;20186;-82
2021/07/10 02:28:44;;;;;;;7.60;6.43;;;18.90;99.90;;;;;;5094389;28;20573;-82
2021/07/10 02:31:10;;;;;;;5.20;4.80;;;18.80;99.90;;;;;;5094480;28;20652;-82
2021/07/10 02:33:35;;;;;;;5.70;5.20;;;18.80;99.90;;;;;;5094801;28;21048;-82
2021/07/10 02:36:01;;;;;;;5.90;5.30;;;18.80;99.90;;;;;;5094247;28;20668;-83
2021/07/10 02:38:27;;;;;;;5.70;5.20;;;18.70;99.90;;;;;;5094597;28;20174;-82
2021/07/10 02:40:53;;;;;;;6.40;5.80;;;18.70;99.90;;;;;;5076140;28;20528;-82
2021/07/10 02:43:19;;;;;;;5.73;5.23;;;18.70;99.90;;;;;;5076478;28;20192;-82
2021/07/10 02:45:44;;;;;;;6.03;5.50;;;18.60;99.90;;;;;;5075865;28;20565;-83
2021/07/10 02:48:12;;;;;;;7.53;5.23;;;18.60;99.90;;;;;;5096180;28;20191;-82
2021/07/10 02:50:38;;;;;;;6.37;5.87;;;18.60;99.90;;;;;;5094344;28;20240;-82
2021/07/10 02:53:04;;;;;;;6.67;6.07;;;18.50;99.90;;;;;;5075972;28;20558;-82
2021/07/10 02:55:31;;;;;;;6.03;5.53;;;18.50;99.90;;;;;;5075919;28;20581;-82
2021/07/10 02:57:57;;;;;;;6.87;6.30;;;18.40;99.90;;;;;;5076093;28;20596;-82
2021/07/10 03:00:26;;;;;;;6.73;6.23;;;18.40;99.90;;;;;;5093877;28;20660;-82
2021/07/10 03:02:52;;;;;;;8.33;6.10;;;18.40;99.90;;;;;;5042355;28;20583;-82
2021/07/10 03:05:18;;;;;;;11.43;8.00;;;18.40;99.90;;;;;;5094445;28;20598;-82
2021/07/10 03:07:44;;;;;;;6.03;5.57;;;18.40;99.90;;;;;;5092818;28;20566;-82
2021/07/10 03:10:13;;;;;;;6.53;5.93;;;18.40;99.90;;;;;;5075372;28;20621;-82
2021/07/10 03:12:39;;;;;;;8.73;5.73;;;18.40;99.90;;;;;;5058993;28;20608;-82
2021/07/10 03:15:07;;;;;;;5.70;5.20;;;18.40;99.90;;;;;;5093773;28;20624;-82
2021/07/10 03:17:32;;;;;;;6.87;5.87;;;18.40;99.90;;;;;;5093649;28;20611;-82
2021/07/10 03:19:58;;;;;;;6.83;6.27;;;18.40;99.90;;;;;;5093463;28;20566;-81
2021/07/10 03:22:24;;;;;;;7.20;6.50;;;18.40;99.90;;;;;;5093581;28;20171;-82
2021/07/10 03:24:50;;;;;;;5.93;5.43;;;18.40;99.90;;;;;;5060062;28;20594;-82
2021/07/10 03:27:16;;;;;;;6.63;5.77;;;18.40;99.90;;;;;;5095574;28;20197;-82
2021/07/10 03:29:41;;;;;;;6.27;5.67;;;18.40;99.90;;;;;;5093089;28;20241;-82
2021/07/10 03:32:07;;;;;;;6.37;5.87;;;18.40;99.90;;;;;;5093280;28;20566;-82
2021/07/10 03:34:33;;;;;;;5.60;5.10;;;18.40;99.90;;;;;;5075276;28;20194;-82
2021/07/10 03:36:59;;;;;;;7.03;6.40;;;18.40;99.90;;;;;;5093157;28;20672;-82
2021/07/10 03:39:25;;;;;;;6.77;6.07;;;18.40;99.90;;;;;;5074905;28;20178;-81
2021/07/10 03:41:52;;;;;;;5.93;5.43;;;18.40;99.90;;;;;;5093454;28;20198;-82
2021/07/10 03:44:17;;;;;;;6.33;5.73;;;18.40;99.90;;;;;;5093142;28;20672;-82
2021/07/10 03:46:45;;;;;;;6.97;6.47;;;18.40;99.90;;;;;;5093289;28;20681;-82
2021/07/10 03:49:12;;;;;;;6.30;5.70;;;18.40;99.90;;;;;;5074721;28;20164;-82
2021/07/10 03:51:37;;;;;;;6.97;6.37;;;18.40;99.90;;;;;;5093039;28;20686;-82
2021/07/10 03:54:04;;;;;;;8.00;7.20;;;18.40;99.90;;;;;;5092950;28;20652;-81
2021/07/10 03:56:29;;;;;;;5.87;5.40;;;18.40;99.90;;;;;;5093173;28;20175;-81
2021/07/10 03:58:55;;;;;;;6.67;5.90;;;18.40;99.90;;;;;;5092498;28;20607;-82
2021/07/10 04:01:21;;;;;;;6.90;6.27;;;18.40;99.90;;;;;;5075198;28;20681;-82
2021/07/10 04:03:47;;;;;;;6.83;6.23;;;18.40;99.90;;;;;;5094805;28;20210;-81
2021/07/10 04:06:13;;;;;;;7.57;5.67;;;18.40;99.90;;;;;;5074687;28;20573;-82
2021/07/10 04:08:38;;;;;;;7.23;6.53;;;18.40;99.90;;;;;;5092589;28;20216;-81
2021/07/10 04:11:07;;;;;;;6.63;6.13;;;18.50;99.90;;;;;;5092735;28;20686;-81
2021/07/10 04:13:33;;;;;;;6.80;6.20;;;18.50;99.90;;;;;;5092424;28;20685;-81
2021/07/10 04:16:00;;;;;;;5.80;5.30;;;18.50;99.90;;;;;;5074484;28;20558;-81
2021/07/10 04:18:27;;;;;;;6.27;5.77;;;18.60;99.90;;;;;;5092426;28;20914;-81
2021/07/10 04:20:53;;;;;;;7.07;6.37;;;18.60;99.90;;;;;;5092265;28;20569;-82
2021/07/10 04:23:20;;;;;;;6.80;6.10;;;18.70;99.90;;;;;;5092430;28;20643;-81
2021/07/10 04:25:46;;;;;;;7.33;6.63;;;18.70;99.90;;;;;;5092354;28;20556;-81
2021/07/10 04:28:11;;;;;;;6.33;5.83;;;18.70;99.90;;;;;;5092614;28;20657;-81
2021/07/10 04:30:38;;;;;;;6.80;6.30;;;18.80;99.90;;;;;;5091940;28;21190;-82
2021/07/10 04:33:04;;;;;;;7.10;6.50;;;18.80;99.90;;;;;;5092300;28;20243;-82
2021/07/10 04:35:30;;;;;;;7.90;7.20;;;18.90;99.90;;;;;;5092073;28;20645;-82
2021/07/10 04:37:56;;;;;;;7.93;7.13;;;18.90;99.90;;;;;;5092352;28;20928;-82
2021/07/10 04:40:22;;;;;;;6.37;5.80;;;18.90;99.90;;;;;;5074715;28;20171;-84
2021/07/10 04:42:48;;;;;;;7.77;7.00;;;18.90;99.90;;;;;;5092254;28;20577;-82
2021/07/10 04:45:16;;;;;;;7.00;6.30;;;18.90;99.90;;;;;;5057374;28;20203;-82
2021/07/10 04:47:42;;;;;;;7.10;6.40;;;18.90;99.90;;;;;;5092046;28;21182;-83
2021/07/10 04:50:11;;;;;;;7.27;6.57;;;18.90;99.90;;;;;;5073747;28;20614;-82
2021/07/10 04:52:37;;;;;;;6.37;5.73;;;18.90;99.90;;;;;;5090733;28;21158;-82
2021/07/10 04:55:06;;;;;;;7.83;5.93;;;18.90;99.90;;;;;;5091695;28;20605;-83
2021/07/10 04:57:32;;;;;;;6.23;5.80;;;18.90;99.90;;;;;;5073718;28;21155;-82
2021/07/10 04:59:57;;;;;;;6.77;6.00;;;19.00;99.90;;;;;;5091814;28;20557;-82
2021/07/10 05:02:23;;;;;;;7.00;6.40;;;19.20;99.90;;;;;;5091841;28;20176;-82
2021/07/10 05:04:49;;;;;;;7.37;6.67;;;19.30;99.90;;;;;;5091976;28;20260;-83
2021/07/10 05:07:14;;;;;;;7.90;7.03;;;19.40;99.90;;;;;;5073783;28;20168;-83
2021/07/10 05:09:40;;;;;;;9.27;8.37;;;19.50;99.90;;;;;;5091529;28;20304;-83
2021/07/10 05:12:06;;;;;;;8.40;7.60;;;19.60;99.90;;;;;;5091765;28;20171;-83
2021/07/10 05:14:32;;;;;;;8.90;6.23;;;19.80;99.90;;;;;;5073760;28;20266;-82
2021/07/10 05:16:57;;;;;;;7.77;7.17;;;19.90;99.90;;;;;;5093177;28;20654;-83
2021/07/10 05:19:23;;;;;;;9.10;5.63;;;20.00;99.90;;;;;;5091525;28;20163;-83
2021/07/10 05:21:49;;;;;;;7.93;6.30;;;20.10;99.90;;;;;;5056871;28;20175;-83
2021/07/10 05:24:15;;;;;;;6.50;6.00;;;20.10;99.90;;;;;;5091576;28;20272;-83
2021/07/10 05:26:41;;;;;;;6.70;6.10;;;20.10;99.90;;;;;;5091351;28;20172;-84
2021/07/10 05:29:06;;;;;;;8.57;6.33;;;20.20;99.90;;;;;;5091667;28;20627;-84
2021/07/10 05:31:33;;;;;;;7.40;6.70;;;20.20;99.90;;;;;;5095409;28;20193;-83
2021/07/10 05:33:58;;;;;;;6.50;5.83;;;20.20;99.90;;;;;;5095895;28;20180;-84
2021/07/10 05:36:24;;;;;;;6.17;5.60;;;20.20;99.90;;;;;;5095754;28;20554;-83
2021/07/10 05:38:50;;;;;;;6.97;6.37;;;20.20;99.90;;;;;;5060832;28;20172;-84
2021/07/10 05:41:16;;;;;;;6.03;5.43;;;20.20;99.90;;;;;;5095933;28;20561;-83
2021/07/10 05:43:41;;;;;;;6.17;5.67;;;20.20;99.90;;;;;;5095591;28;20183;-83
2021/07/10 05:46:07;;;;;;;6.97;6.37;;;20.20;99.90;;;;;;5095584;28;20221;-82
2021/07/10 05:48:33;;;;;;;5.97;5.47;;;20.20;99.90;;;;;;5095637;28;20225;-83
2021/07/10 05:50:59;;;;;;;7.27;6.67;;;20.20;99.90;;;;;;5076801;28;20632;-83
2021/07/10 05:53:25;;;;;;;6.37;5.77;;;20.20;99.90;;;;;;5096295;28;20180;-83
2021/07/10 05:55:51;;;;;;;5.60;5.10;;;20.30;99.90;;;;;;5077032;28;20255;-83
2021/07/10 05:58:16;;;;;;;7.10;5.97;;;20.40;99.90;;;;;;5095342;28;20604;-82
2021/07/10 06:00:42;;;;;;;7.73;6.93;;;20.50;99.90;;;;;;5095170;28;20168;-82
2021/07/10 06:03:08;;;;;;;7.00;6.37;;;20.50;99.90;;;;;;5060082;28;20168;-83
2021/07/10 06:05:37;;;;;;;7.03;6.33;;;20.50;99.90;;;;;;5095314;28;20622;-83
2021/07/10 06:08:03;;;;;;;6.43;5.93;;;20.50;99.90;;;;;;5060098;28;21124;-83
2021/07/10 06:10:29;;;;;;;7.43;6.63;;;20.50;99.90;;;;;;5094896;28;21095;-82
2021/07/10 06:12:55;;;;;;;7.63;6.83;;;20.50;99.90;;;;;;5076867;28;20664;-82
2021/07/10 06:15:21;;;;;;;6.37;5.80;;;20.50;99.90;;;;;;5060191;28;20178;-83
2021/07/10 06:17:46;;;;;;;6.23;5.73;;;20.60;99.90;;;;;;5095071;28;20178;-83
2021/07/10 06:20:15;;;;;;;6.80;6.07;;;20.60;99.90;;;;;;5076551;28;20577;-83
2021/07/10 06:22:42;;;;;;;5.70;5.20;;;20.70;99.90;;;;;;5094980;28;20195;-83
2021/07/10 06:25:09;;;;;;;6.87;6.27;;;20.70;99.90;;;;;;5094754;28;20658;-83
2021/07/10 06:27:35;;;;;;;6.77;6.27;;;20.80;99.90;;;;;;5094906;28;20665;-82
2021/07/10 06:30:03;;;;;;;5.57;5.10;;;21.00;99.90;;;;;;5078537;28;20625;-83
2021/07/10 06:32:29;;;;;;;6.60;6.10;;;21.10;99.90;;;;;;5094989;28;20959;-82
2021/07/10 06:34:54;;;;;;;11.10;5.60;;;21.30;99.90;;;;;;5094887;28;20635;-82
2021/07/10 06:37:20;;;;;;;6.07;5.50;;;21.40;99.90;;;;;;5095536;28;20172;-83
2021/07/10 06:39:49;;;;;;;6.00;5.40;;;21.50;99.90;;;;;;5095101;28;20191;-83
2021/07/10 06:42:24;;;;;;;9.93;5.40;;;21.80;99.90;;;;;;5078485;28;20530;-83
2021/07/10 06:44:51;;;;;;;6.30;5.43;;;22.00;99.90;;;;;;5059756;28;20655;-83
2021/07/10 06:47:18;;;;;;;7.83;4.60;;;22.20;99.90;;;;;;5095083;28;20171;-83
2021/07/10 06:49:45;;;;;;;7.00;4.47;;;22.40;99.90;;;;;;5095134;28;20562;-83
2021/07/10 06:52:11;;;;;;;5.83;4.70;;;22.60;99.90;;;;;;5076667;28;20565;-83
2021/07/10 06:54:37;;;;;;;5.70;5.20;;;22.80;99.90;;;;;;5095673;28;20717;-83
2021/07/10 06:57:03;;;;;;;5.27;4.87;;;23.00;99.90;;;;;;5094922;28;20569;-83
2021/07/10 06:59:28;;;;;;;6.40;4.97;;;23.10;99.90;;;;;;5094387;28;20171;-83
2021/07/10 07:01:54;;;;;;;5.30;4.77;;;23.20;99.90;;;;;;5076641;28;20699;-83
2021/07/10 07:04:20;;;;;;;5.47;4.77;;;23.30;99.90;;;;;;5076650;28;20252;-83
2021/07/10 07:06:46;;;;;;;5.03;4.63;;;23.40;99.90;;;;;;5097837;28;20168;-83
2021/07/10 07:09:12;;;;;;;4.90;4.40;;;23.50;99.90;;;;;;5094381;28;20911;-83
2021/07/10 07:11:38;;;;;;;5.30;4.73;;;23.70;99.90;;;;;;5094922;28;20619;-84
2021/07/10 07:14:05;;;;;;;4.97;4.20;;;24.00;99.90;;;;;;5094681;28;20721;-84
2021/07/10 07:16:32;;;;;;;4.43;4.03;;;24.40;99.90;;;;;;5076498;28;21129;-83
2021/07/10 07:18:57;;;;;;;4.40;4.00;;;24.90;99.90;;;;;;5095063;28;20913;-84
2021/07/10 07:21:24;;;;;;;4.30;3.90;;;25.40;99.90;;;;;;5095287;28;20577;-84
2021/07/10 07:23:51;;;;;;;5.50;5.00;;;25.80;99.90;;;;;;5079150;28;20604;-84
2021/07/10 07:26:19;;;;;;;4.80;3.90;;;26.30;99.90;;;;;;5106461;28;20566;-84
2021/07/10 07:28:48;;;;;;;4.80;4.40;;;26.60;99.90;;;;;;5113168;28;20578;-84
2021/07/10 07:31:15;;;;;;;6.67;4.50;;;26.80;99.90;;;;;;5091425;28;21003;-82
2021/07/10 07:33:40;;;;;;;4.50;3.90;;;27.20;99.90;;;;;;5109703;28;20612;-82
2021/07/10 07:36:08;;;;;;;4.30;3.90;;;27.60;99.90;;;;;;5092369;28;20951;-82
2021/07/10 07:38:35;;;;;;;4.40;4.10;;;27.90;99.90;;;;;;5110823;28;20194;-83
2021/07/10 07:41:02;;;;;;;5.07;3.83;;;28.20;99.90;;;;;;5088969;28;20581;-84
2021/07/10 07:43:28;;;;;;;5.00;4.60;;;28.40;99.90;;;;;;5109530;28;20633;-84
2021/07/10 07:45:53;;;;;;;5.63;4.33;;;28.50;99.90;;;;;;5089411;28;20600;-82
2021/07/10 07:48:19;;;;;;;4.30;4.00;;;28.50;99.90;;;;;;5086744;28;20164;-85
2021/07/10 07:50:45;;;;;;;4.40;4.00;;;28.60;99.90;;;;;;5084915;28;20195;-84
2021/07/10 07:53:11;;;;;;;4.90;4.50;;;28.70;99.90;;;;;;5079622;28;20156;-84
2021/07/10 07:55:37;;;;;;;4.90;4.00;;;28.60;99.90;;;;;;5076483;28;20179;-84
2021/07/10 07:58:04;;;;;;;5.30;4.43;;;28.60;99.90;;;;;;5094368;28;20168;-84
2021/07/10 08:00:30;;;;;;;7.50;4.83;;;28.60;99.90;;;;;;5093548;28;20589;-85
2021/07/10 08:02:56;;;;;;;4.27;3.87;;;28.70;99.90;;;;;;5093419;28;20562;-84
2021/07/10 08:05:22;;;;;;;4.80;4.40;;;28.80;99.90;;;;;;5058384;28;20978;-85
2021/07/10 08:07:47;;;;;;;5.50;4.20;;;28.90;99.90;;;;;;5093175;28;20538;-85
2021/07/10 08:10:15;;;;;;;4.03;3.73;;;29.00;99.90;;;;;;5092946;28;20616;-82
2021/07/10 08:12:43;;;;;;;4.37;3.97;;;29.00;99.90;;;;;;5093047;28;20603;-83
2021/07/10 08:15:10;;;;;;;5.73;4.30;;;29.20;99.90;;;;;;5075190;28;20597;-82
2021/07/10 08:17:37;;;;;;;5.40;4.33;;;29.40;99.90;;;;;;5093448;28;21199;-82
2021/07/10 08:20:05;;;;;;;5.33;4.93;;;29.60;99.90;;;;;;5078867;28;21206;-82
2021/07/10 08:22:31;;;;;;;4.00;3.70;;;29.70;99.90;;;;;;5092831;28;20592;-82
2021/07/10 08:24:56;;;;;;;4.87;4.00;;;29.60;99.90;;;;;;5074758;28;21021;-85
2021/07/10 08:27:23;;;;;;;5.70;4.30;;;29.60;99.90;;;;;;5092599;28;20190;-85
2021/07/10 08:29:49;;;;;;;4.20;3.90;;;29.70;99.90;;;;;;5092499;28;20195;-85
2021/07/10 08:32:15;;;;;;;4.83;4.00;;;29.70;99.90;;;;;;5074556;28;20585;-85
2021/07/10 08:34:40;;;;;;;4.57;4.03;;;29.80;99.90;;;;;;5092486;28;20184;-85
2021/07/10 08:37:06;;;;;;;4.43;4.10;;;29.90;99.90;;;;;;5092334;28;20247;-85
2021/07/10 08:39:32;;;;;;;4.10;3.70;;;30.00;99.90;;;;;;5074075;28;20171;-84
2021/07/10 08:41:58;;;;;;;3.80;3.50;;;29.90;99.90;;;;;;5093708;28;20172;-84
2021/07/10 08:44:25;;;;;;;3.37;3.13;;;29.90;99.90;;;;;;5092736;28;20608;-84
2021/07/10 08:46:52;;;;;;;3.43;3.13;;;29.90;99.90;;;;;;5076320;28;20175;-85
2021/07/10 08:49:19;;;;;;;3.67;3.00;;;30.10;99.90;;;;;;5047015;28;20932;-85
2021/07/10 08:51:47;;;;;;;4.03;3.60;;;30.50;99.90;;;;;;5094578;28;20713;-84
2021/07/10 08:54:14;;;;;;;3.83;3.53;;;30.70;99.90;;;;;;5074758;28;20597;-85
2021/07/10 08:56:40;;;;;;;3.70;3.40;;;30.80;99.80;;;;;;5096327;28;20563;-84
2021/07/10 08:59:11;;;;;;;3.23;2.90;;;31.00;99.50;;;;;;5057639;28;20585;-84
2021/07/10 09:01:36;;;;;;;3.07;2.87;;;31.40;99.60;;;;;;5074283;28;21010;-84
2021/07/10 09:04:03;;;;;;;2.90;2.70;;;31.70;98.80;;;;;;5118236;22;20650;-84
2021/07/10 09:06:28;;;;;;;5.10;2.93;;;32.00;98.60;;;;;;5098190;28;20549;-85
2021/07/10 09:08:55;;;;;;;3.70;2.63;;;32.20;96.40;;;;;;5094010;28;20584;-85
2021/07/10 09:11:22;;;;;;;3.90;3.60;;;32.30;96.00;;;;;;5112037;28;20209;-85
2021/07/10 09:13:53;;;;;;;2.67;2.47;;;32.30;94.40;;;;;;5094726;28;20588;-84
2021/07/10 09:16:36;;;;;;;3.37;3.07;;;32.20;94.60;;;;;;5095717;28;20559;-84
2021/07/10 09:19:09;;;;;;;2.97;2.63;;;32.30;95.00;;;;;;5096331;28;20595;-84
2021/07/10 09:21:43;;;;;;;3.07;2.80;;;32.30;93.70;;;;;;5097865;28;20565;-84
2021/07/10 09:24:14;;;;;;;4.40;4.07;;;32.30;93.70;;;;;;5115389;28;20749;-84
2021/07/10 09:26:44;;;;;;;4.40;4.00;;;32.20;91.90;;;;;;5094258;28;20593;-84
2021/07/10 09:29:13;;;;;;;4.47;3.40;;;32.20;91.70;;;;;;5094042;28;20954;-84
2021/07/10 09:31:43;;;;;;;7.87;4.63;;;32.00;91.40;;;;;;5094018;28;20655;-84
2021/07/10 09:34:13;;;;;;;3.50;3.20;;;31.80;91.20;;;;;;5112143;28;20617;-84
2021/07/10 09:36:58;;;;;;;4.00;3.60;;;31.60;90.70;;;;;;5093819;28;20574;-84
2021/07/10 09:39:27;;;;;;;4.03;3.20;;;31.30;90.90;;;;;;5111880;28;20642;-85
2021/07/10 09:41:55;;;;;;;11.93;3.90;;;31.20;91.10;;;;;;5117118;28;20980;-84
2021/07/10 09:44:21;;;;;;;5.30;3.93;;;31.10;91.30;;;;;;5112262;28;20593;-84
2021/07/10 09:46:46;;;;;;;3.90;3.60;;;31.10;91.50;;;;;;5111881;28;20553;-84
2021/07/10 09:49:31;;;;;;;4.10;3.70;;;31.10;90.80;;;;;;5111835;28;20637;-85
2021/07/10 09:52:00;;;;;;;3.80;3.50;;;30.80;90.60;;;;;;5093661;28;20247;-84
2021/07/10 09:54:38;;;;;;;5.57;3.40;;;30.80;90.90;;;;;;5111902;28;20776;-84
2021/07/10 09:57:09;;;;;;;6.10;3.90;;;30.70;91.20;;;;;;5094142;28;20565;-84
2021/07/10 09:59:45;;;;;;;4.20;3.80;;;30.80;91.40;;;;;;5111764;28;20564;-85
2021/07/10 10:02:17;;;;;;;4.60;4.20;;;30.80;91.40;;;;;;5078045;28;20581;-85
2021/07/10 10:04:44;;;;;;;4.47;4.07;;;30.90;90.50;;;;;;5094214;28;20612;-85
2021/07/10 10:07:13;;;;;;;4.43;4.03;;;30.60;90.50;;;;;;5093977;28;20577;-85
2021/07/10 10:09:39;;;;;;;3.20;3.00;;;30.40;90.20;;;;;;5113148;28;21161;-85
2021/07/10 10:12:16;;;;;;;4.63;4.23;;;30.20;90.50;;;;;;5112451;28;20616;-85
2021/07/10 10:14:47;;;;;;;4.77;4.47;;;30.10;90.10;;;;;;5097000;28;21024;-85
2021/07/10 10:17:16;;;;;;;4.23;3.83;;;29.90;90.30;;;;;;5098074;28;20556;-85
2021/07/10 10:19:42;;;;;;;5.80;3.70;;;29.80;90.30;;;;;;5102489;28;20664;-84
2021/07/10 10:22:10;;;;;;;4.23;3.83;;;29.70;90.70;;;;;;5098571;28;20592;-85
2021/07/10 10:24:39;;;;;;;3.77;3.47;;;29.80;91.20;;;;;;5115952;28;20612;-85
2021/07/10 10:27:06;;;;;;;3.77;3.47;;;30.00;91.30;;;;;;5115845;28;20595;-85
2021/07/10 10:29:33;;;;;;;5.10;4.00;;;30.00;90.70;;;;;;5115587;28;20572;-85
2021/07/10 10:31:59;;;;;;;3.50;3.20;;;29.80;90.10;;;;;;5115953;28;21292;-85
2021/07/10 10:34:25;;;;;;;4.57;3.37;;;29.80;90.20;;;;;;5115597;28;20601;-85
2021/07/10 10:36:53;;;;;;;3.93;3.47;;;29.80;90.40;;;;;;5115800;28;20568;-85
2021/07/10 10:39:20;;;;;;;3.60;3.30;;;29.80;90.30;;;;;;5097179;28;21111;-85
2021/07/10 10:41:49;;;;;;;9.67;3.60;;;29.90;90.60;;;;;;5116053;28;20562;-84
2021/07/10 10:44:17;;;;;;;3.90;3.30;;;30.10;91.00;;;;;;5080713;28;20610;-85
2021/07/10 10:46:55;;;;;;;3.83;2.60;;;30.40;91.20;;;;;;5098520;28;20571;-84
2021/07/10 10:49:38;;;;;;;2.70;2.50;;;30.80;91.10;;;;;;5115748;28;20576;-85
2021/07/10 10:52:35;;;;;;;4.20;2.87;;;31.30;90.60;;;;;;5115865;28;20613;-85
2021/07/10 10:55:10;;;;;;;4.00;3.60;;;31.70;90.50;;;;;;5101808;28;20569;-85
2021/07/10 10:57:41;;;;;;;3.17;2.90;;;32.10;89.80;;;;;;5115401;28;20656;-85
2021/07/10 11:00:10;;;;;;;3.70;3.30;;;32.30;88.90;;;;;;5096321;28;21163;-85
2021/07/10 11:02:36;;;;;;;3.47;3.17;;;32.40;87.20;;;;;;5096706;28;21129;-85
2021/07/10 11:05:03;;;;;;;5.27;4.00;;;32.50;86.00;;;;;;5096592;28;20607;-85
2021/07/10 11:07:30;;;;;;;2.93;2.63;;;32.50;85.40;;;;;;5095680;28;20669;-85
2021/07/10 11:10:02;;;;;;;3.03;2.60;;;32.60;84.60;;;;;;5132123;28;20591;-85
2021/07/10 11:12:48;;;;;;;2.57;2.37;;;32.50;82.00;;;;;;5112301;28;20581;-85
2021/07/10 11:15:27;;;;;;;2.70;2.50;;;32.30;80.60;;;;;;5115578;28;20589;-85
2021/07/10 11:17:53;;;;;;;3.47;2.70;;;32.20;79.50;;;;;;5114916;28;20885;-85
2021/07/10 11:20:51;;;;;;;2.47;2.27;;;32.10;80.00;;;;;;5096220;28;20562;-85
2021/07/10 11:23:24;;;;;;;2.50;2.07;;;32.00;80.80;;;;;;5036152;28;20585;-85
2021/07/10 11:25:49;;;;;;;2.70;2.40;;;32.10;81.10;;;;;;5118051;28;20699;-85
2021/07/10 11:28:16;;;;;;;2.77;2.20;;;32.20;81.40;;;;;;5114681;28;20593;-85
2021/07/10 11:30:51;;;;;;;3.10;2.60;;;32.40;81.00;;;;;;5115501;28;20197;-86
2021/07/10 11:33:36;;;;;;;2.80;2.57;;;32.40;78.20;;;;;;5118145;28;20558;-86
2021/07/10 11:36:02;;;;;;;3.23;2.93;;;32.40;78.30;;;;;;5114074;28;20685;-86
2021/07/10 11:38:41;;;;;;;2.23;2.03;;;32.30;76.60;;;;;;5096332;28;20562;-85
2021/07/10 11:41:07;;;;;;;2.10;1.90;;;32.10;76.00;;;;;;5096217;28;20578;-85
2021/07/10 11:43:37;;;;;;;3.13;2.50;;;32.30;76.90;;;;;;5096245;28;21011;-86
2021/07/10 11:46:03;;;;;;;2.40;2.20;;;32.20;74.30;;;;;;5095923;28;20531;-86
2021/07/10 11:48:32;;;;;;;2.90;2.60;;;31.90;73.50;;;;;;5114849;28;20671;-85
2021/07/10 11:51:02;;;;;;;4.10;2.27;;;31.70;73.20;;;;;;5096378;28;20220;-85
2021/07/10 11:53:28;;;;;;;8.03;1.83;;;31.70;73.20;;;;;;5114423;28;20561;-85
2021/07/10 11:55:54;;;;;;;2.10;1.70;;;31.60;71.30;;;;;;5113400;28;20669;-85
2021/07/10 11:58:20;;;;;;;2.20;1.97;;;31.40;71.90;;;;;;5095658;28;20576;-85
2021/07/10 12:00:47;;;;;;;2.33;2.13;;;31.30;71.40;;;;;;5078470;28;20568;-85
2021/07/10 12:03:17;;;;;;;2.80;1.90;;;31.10;71.70;;;;;;5113950;28;20164;-85
2021/07/10 12:05:42;;;;;;;2.43;1.90;;;31.10;71.90;;;;;;5095143;28;20611;-85
2021/07/10 12:08:08;;;;;;;2.50;1.70;;;31.20;71.70;;;;;;5079941;28;20584;-86
2021/07/10 12:10:36;;;;;;;1.67;1.50;;;31.10;72.00;;;;;;5117231;28;20232;-84
2021/07/10 12:13:31;;;;;;;3.30;1.70;;;31.10;71.80;;;;;;5095813;28;20185;-85
2021/07/10 12:16:06;;;;;;;3.70;1.73;;;31.10;71.60;;;;;;5095213;28;20684;-85
2021/07/10 12:18:35;;;;;;;1.80;1.50;;;30.90;70.50;;;;;;5113557;28;20563;-85
2021/07/10 12:21:05;;;;;;;2.43;1.87;;;30.80;70.00;;;;;;5094906;28;21043;-84
2021/07/10 12:23:39;;;;;;;2.03;1.83;;;30.60;69.20;;;;;;5113202;28;20614;-84
2021/07/10 12:26:08;;;;;;;4.47;2.33;;;30.40;69.00;;;;;;5094663;28;20979;-84
2021/07/10 12:28:39;;;;;;;2.47;1.50;;;30.20;69.10;;;;;;5113201;28;20663;-85
2021/07/10 12:31:12;;;;;;;2.20;1.57;;;30.10;69.40;;;;;;5113064;28;20600;-84
2021/07/10 12:33:44;;;;;;;2.37;1.50;;;30.00;69.30;;;;;;5094979;28;20561;-85
2021/07/10 12:36:15;;;;;;;1.93;1.47;;;29.90;69.60;;;;;;5112731;28;20561;-85
2021/07/10 12:39:00;;;;;;;1.80;1.53;;;30.00;69.60;;;;;;5104187;28;20569;-85
2021/07/10 12:41:38;;;;;;;2.23;1.57;;;29.90;69.50;;;;;;5112821;28;20553;-85
2021/07/10 12:44:34;;;;;;;2.40;2.10;;;29.90;69.30;;;;;;5094462;28;20595;-85
2021/07/10 12:47:17;;;;;;;1.97;1.17;;;29.90;69.40;;;;;;5117681;28;20618;-85
2021/07/10 12:49:57;;;;;;;1.60;1.33;;;29.80;69.70;;;;;;5112559;28;20568;-85